Waynesfield, Ohio
Current Conditions -  °F | °C
As of 8:53 PM on Wednesday 22 Oct 2014 (Local Time) from KAOH Reporting Station
Clear Clear  
Wind Chill: 44°   Ceiling: Unl
Heat Index: 44°   Visibility: 10mi
Dew Point: 39°   Wind: 3mph
Humidity: 82%   Direction: 310°NW
Pressure: 30.28"   Gusts: NA
Location:  40.6°N, 83.98°W
Report Text: KAOH 230053Z AUTO 31003KT 10SM CLR 07/04 A3028 RMK AO2 SLP257 T00670039
Loading
Personal Weather Stations






























Interactive Weather Map
Tropical Storm Tracking
New forecast layout! Learn more

10-Day Weather Forecast

Advertisements
Track Severe Weather on mobile